createdAt,value
2022-12-31T00:03:08.481Z,98533.14
2022-12-31T00:08:30.401Z,98535.53
2022-12-31T00:13:53.151Z,98535.68
2022-12-31T00:19:14.628Z,98522.39
2022-12-31T00:24:36.685Z,98513.21
2022-12-31T00:30:04.256Z,98522.12
2022-12-31T00:35:27.276Z,98525.44
2022-12-31T00:40:49.213Z,98528.50
2022-12-31T00:46:14.422Z,98530.72
2022-12-31T00:51:36.074Z,98539.15
2022-12-31T00:56:58.055Z,98532.92
2022-12-31T01:02:19.969Z,98535.77
2022-12-31T01:07:42.203Z,98544.00
2022-12-31T01:13:03.846Z,98540.59
2022-12-31T01:18:25.548Z,98537.23
2022-12-31T01:23:50.864Z,98535.28
2022-12-31T01:29:13.400Z,98531.83
2022-12-31T01:34:35.216Z,98556.08
2022-12-31T01:39:57.017Z,98548.48
2022-12-31T01:45:19.294Z,98550.78
2022-12-31T01:50:41.675Z,98535.02
2022-12-31T01:56:03.891Z,98539.44
2022-12-31T02:01:29.424Z,98546.26
2022-12-31T02:06:57.873Z,98545.79
2022-12-31T02:12:19.751Z,98546.79
2022-12-31T02:18:03.703Z,98547.34
2022-12-31T02:23:55.541Z,98531.06
2022-12-31T02:29:47.345Z,98508.08
2022-12-31T02:35:19.903Z,98514.74
2022-12-31T02:40:41.765Z,98505.27
2022-12-31T02:46:13.398Z,98496.60
2022-12-31T02:51:44.595Z,98498.16
2022-12-31T02:57:13.384Z,98495.52
2022-12-31T03:02:39.168Z,98512.20
2022-12-31T03:08:00.867Z,98519.10
2022-12-31T03:13:25.326Z,98525.11
2022-12-31T03:19:05.468Z,98526.64
2022-12-31T03:24:45.785Z,98515.93
2022-12-31T03:30:08.623Z,98522.27
2022-12-31T03:35:33.026Z,98530.77
2022-12-31T03:40:55.795Z,98526.48
2022-12-31T03:46:17.527Z,98530.64
2022-12-31T03:51:39.212Z,98532.23
2022-12-31T03:57:01.015Z,98547.45
2022-12-31T04:02:28.272Z,98556.76
2022-12-31T04:07:54.872Z,98549.24
2022-12-31T04:13:16.557Z,98549.33
2022-12-31T04:18:38.154Z,98552.48
2022-12-31T04:24:00.225Z,98543.43
2022-12-31T04:29:22.712Z,98547.45
2022-12-31T04:34:44.784Z,98558.68
2022-12-31T04:40:07.838Z,98572.90
2022-12-31T04:45:30.742Z,98585.61
2022-12-31T04:50:52.449Z,98593.69
2022-12-31T04:56:15.103Z,98595.08
2022-12-31T05:01:39.648Z,98590.73
2022-12-31T05:07:01.489Z,98590.91
2022-12-31T05:12:24.071Z,98587.20
2022-12-31T05:17:46.020Z,98586.98
2022-12-31T05:23:08.174Z,98575.23
2022-12-31T05:28:29.944Z,98572.17
2022-12-31T05:33:53.254Z,98563.64
2022-12-31T05:39:15.219Z,98571.83
2022-12-31T05:44:37.847Z,98580.31
2022-12-31T05:49:59.741Z,98592.30
2022-12-31T05:55:21.952Z,98601.06
2022-12-31T06:00:43.821Z,98602.98
2022-12-31T06:06:05.925Z,98625.59
2022-12-31T06:11:27.842Z,98625.20
2022-12-31T06:16:49.707Z,98617.86
2022-12-31T06:22:11.643Z,98611.86
2022-12-31T06:27:38.201Z,98607.40
2022-12-31T06:33:00.244Z,98586.95
2022-12-31T06:38:22.120Z,98598.52
2022-12-31T06:43:44.285Z,98607.09
2022-12-31T07:01:32.504Z,98628.34
2022-12-31T07:06:58.863Z,98630.80
2022-12-31T07:12:38.928Z,98630.75
2022-12-31T07:18:15.302Z,98647.64
2022-12-31T07:23:37.142Z,98646.80
2022-12-31T07:29:36.999Z,98629.63
2022-12-31T07:35:22.383Z,98638.69
2022-12-31T07:40:54.295Z,98638.95
2022-12-31T07:46:34.135Z,98652.46
2022-12-31T07:51:56.921Z,98654.46
2022-12-31T07:57:20.218Z,98655.70
2022-12-31T08:03:09.523Z,98669.39
2022-12-31T08:08:36.982Z,98675.12
2022-12-31T08:14:02.435Z,98667.77
2022-12-31T08:19:30.135Z,98668.06
2022-12-31T08:25:28.888Z,98646.91
2022-12-31T08:31:20.366Z,98653.25
2022-12-31T08:37:07.536Z,98658.38
2022-12-31T08:42:39.720Z,98670.50
2022-12-31T08:48:39.888Z,98672.23
2022-12-31T08:54:02.254Z,98678.23
2022-12-31T08:59:34.592Z,98676.75
2022-12-31T09:05:00.420Z,98672.19
2022-12-31T09:10:26.102Z,98663.30
2022-12-31T09:15:56.398Z,98662.75
2022-12-31T09:21:18.088Z,98663.77
2022-12-31T09:27:06.741Z,98662.67
2022-12-31T09:32:52.962Z,98653.80
2022-12-31T09:38:24.752Z,98639.96
2022-12-31T09:44:05.396Z,98658.39
2022-12-31T09:50:01.513Z,98664.25
2022-12-31T09:55:32.803Z,98663.75
2022-12-31T10:01:03.808Z,98656.48
2022-12-31T10:07:00.197Z,98650.76
2022-12-31T10:12:59.893Z,98655.73
2022-12-31T10:18:58.594Z,98646.46
2022-12-31T10:24:45.159Z,98651.80
2022-12-31T10:30:17.500Z,98657.98
2022-12-31T10:35:59.621Z,98641.98
2022-12-31T10:41:36.672Z,98657.59
2022-12-31T10:47:17.261Z,98663.73
2022-12-31T10:52:54.309Z,98665.59
2022-12-31T10:58:28.029Z,98663.19
2022-12-31T11:04:27.730Z,98649.08
2022-12-31T11:10:03.167Z,98646.25
2022-12-31T11:15:38.810Z,98632.42
2022-12-31T11:21:15.693Z,98636.24
2022-12-31T11:26:50.534Z,98645.94
2022-12-31T11:32:21.453Z,98640.34
2022-12-31T11:38:06.158Z,98641.40
2022-12-31T11:43:35.668Z,98639.34
2022-12-31T11:49:20.255Z,98631.63
2022-12-31T11:54:58.704Z,98631.52
2022-12-31T12:00:22.927Z,98640.29
2022-12-31T12:05:44.605Z,98627.03
2022-12-31T12:11:21.759Z,98617.05
2022-12-31T12:16:43.318Z,98615.84
2022-12-31T12:22:14.808Z,98608.73
2022-12-31T12:27:37.510Z,98612.83
2022-12-31T12:33:04.793Z,98615.22
2022-12-31T12:38:26.332Z,98619.50
2022-12-31T12:43:47.993Z,98618.30
2022-12-31T12:49:39.728Z,98603.48
2022-12-31T12:55:10.672Z,98601.58
2022-12-31T13:00:46.835Z,98587.80
2022-12-31T13:06:40.918Z,98585.23
2022-12-31T13:12:21.726Z,98584.92
2022-12-31T13:18:06.322Z,98587.02
2022-12-31T13:23:39.878Z,98598.38
2022-12-31T13:29:02.874Z,98603.03
2022-12-31T13:34:29.175Z,98600.41
2022-12-31T13:39:58.115Z,98620.84
2022-12-31T13:45:29.392Z,98626.84
2022-12-31T13:50:55.544Z,98629.73
2022-12-31T13:56:24.894Z,98640.54
2022-12-31T14:01:54.798Z,98640.85
2022-12-31T14:07:35.441Z,98628.12
2022-12-31T14:13:12.222Z,98630.34
2022-12-31T14:18:46.193Z,98638.77
2022-12-31T14:24:18.096Z,98645.64
2022-12-31T14:29:43.787Z,98651.12
2022-12-31T14:35:35.385Z,98653.51
2022-12-31T14:41:23.916Z,98643.52
2022-12-31T14:47:13.739Z,98647.29
2022-12-31T14:52:59.974Z,98651.38
2022-12-31T14:58:41.832Z,98648.62
2022-12-31T15:04:14.438Z,98646.70
2022-12-31T15:10:04.493Z,98649.60
2022-12-31T15:15:35.281Z,98652.73
2022-12-31T15:21:21.273Z,98653.42
2022-12-31T15:26:54.351Z,98650.86
2022-12-31T15:32:23.191Z,98660.84
2022-12-31T15:37:44.716Z,98672.38
2022-12-31T15:43:14.589Z,98674.63
2022-12-31T15:48:52.504Z,98673.10
2022-12-31T15:54:55.628Z,98676.89
2022-12-31T16:00:20.384Z,98685.85
2022-12-31T16:05:42.219Z,98681.27
2022-12-31T16:11:05.415Z,98680.77
2022-12-31T16:16:30.304Z,98696.14
2022-12-31T16:21:56.481Z,98691.68
2022-12-31T16:27:18.310Z,98698.21
2022-12-31T16:32:40.433Z,98703.03
2022-12-31T16:38:08.074Z,98698.05
2022-12-31T16:43:30.576Z,98705.11
2022-12-31T16:49:14.924Z,98711.15
2022-12-31T16:54:39.761Z,98711.52
2022-12-31T17:00:06.451Z,98712.04
2022-12-31T17:05:28.942Z,98715.84
2022-12-31T17:10:50.805Z,98721.56
2022-12-31T17:16:17.450Z,98719.73
2022-12-31T17:21:47.185Z,98717.55
2022-12-31T17:27:09.600Z,98713.13
2022-12-31T17:32:37.157Z,98722.64
2022-12-31T17:38:23.575Z,98725.94
2022-12-31T17:43:45.900Z,98727.69
2022-12-31T17:49:10.132Z,98727.55
2022-12-31T17:54:31.823Z,98736.17
2022-12-31T17:59:54.192Z,98737.55
2022-12-31T18:05:18.634Z,98742.39
2022-12-31T18:10:42.388Z,98752.52
2022-12-31T18:16:04.540Z,98754.92
2022-12-31T18:21:32.764Z,98755.94
2022-12-31T18:26:55.408Z,98757.80
2022-12-31T18:32:25.015Z,98755.02
2022-12-31T18:37:47.166Z,98759.81
2022-12-31T18:43:14.863Z,98759.45
2022-12-31T18:48:36.848Z,98757.69
2022-12-31T18:53:59.679Z,98760.75
2022-12-31T18:59:21.306Z,98772.11
2022-12-31T19:04:43.475Z,98764.36
2022-12-31T19:10:05.972Z,98764.88
2022-12-31T19:15:41.879Z,98769.35
2022-12-31T19:21:04.279Z,98777.63
2022-12-31T19:26:26.407Z,98781.40
2022-12-31T19:31:48.894Z,98767.11
2022-12-31T19:37:16.984Z,98754.04
2022-12-31T19:42:38.918Z,98757.30
2022-12-31T19:48:00.852Z,98774.48
2022-12-31T19:53:29.015Z,98770.33
2022-12-31T19:58:51.128Z,98774.48
2022-12-31T20:04:13.071Z,98778.14
2022-12-31T20:09:35.196Z,98791.41
2022-12-31T20:14:57.162Z,98794.35
2022-12-31T20:20:19.249Z,98778.06
2022-12-31T20:25:41.481Z,98774.80
2022-12-31T20:31:10.215Z,98768.45
2022-12-31T20:36:32.185Z,98767.66
2022-12-31T20:41:54.193Z,98771.98
2022-12-31T20:47:16.326Z,98767.35
2022-12-31T20:52:38.513Z,98769.38
2022-12-31T20:58:03.595Z,98769.88
2022-12-31T21:04:02.951Z,98770.89
2022-12-31T21:09:08.322Z,98769.66
2022-12-31T21:14:29.849Z,98756.55
2022-12-31T21:19:51.980Z,98766.35
2022-12-31T21:25:13.612Z,98779.38
2022-12-31T21:30:38.109Z,98770.06
2022-12-31T21:36:04.566Z,98771.45
2022-12-31T21:41:45.790Z,98775.89
2022-12-31T21:47:35.657Z,98778.14
2022-12-31T21:53:00.465Z,98781.59
2022-12-31T21:58:27.247Z,98791.06
2022-12-31T22:03:49.971Z,98802.27
2022-12-31T22:09:11.932Z,98803.63
2022-12-31T22:14:34.103Z,98813.25
2022-12-31T22:25:38.533Z,98820.05
2022-12-31T22:31:01.219Z,98813.98
2022-12-31T22:36:24.003Z,98811.38
2022-12-31T22:41:46.666Z,98811.36
2022-12-31T22:47:08.972Z,98806.71
2022-12-31T22:52:31.590Z,98807.39
2022-12-31T22:57:53.206Z,98809.25
2022-12-31T23:03:15.957Z,98808.84
2022-12-31T23:08:40.750Z,98816.73
2022-12-31T23:14:22.016Z,98822.74
2022-12-31T23:20:02.524Z,98830.12
2022-12-31T23:25:24.806Z,98817.67
2022-12-31T23:30:46.842Z,98817.10
2022-12-31T23:36:08.772Z,98821.72
2022-12-31T23:41:30.794Z,98824.45
2022-12-31T23:46:52.441Z,98829.77
2022-12-31T23:52:14.435Z,98832.30
2022-12-31T23:57:36.360Z,98828.98
